Time;durP1;ratioP1;P1;durP2;ratioP2;P2;SDS_P1;SDS_P2;PMS_P1;PMS_P2;Temp;Humidity;BMP_temperature;BMP_pressure;BME280_temperature;BME280_humidity;BME280_pressure;Samples;Min_cycle;Max_cycle;Signal;HPM_P1;HPM_P2
2021/12/30 00:01:19;;;;;;;33.70;13.88;;;11.20;99.90;;;;;;4946299;28;20034;-83
2021/12/30 00:03:45;;;;;;;25.42;8.50;;;11.20;99.90;;;;;;4967161;28;20056;-83
2021/12/30 00:06:10;;;;;;;30.75;14.27;;;11.20;99.90;;;;;;4965080;28;20080;-83
2021/12/30 00:08:36;;;;;;;35.90;13.07;;;11.30;99.90;;;;;;4946153;28;20429;-83
2021/12/30 00:11:02;;;;;;;36.50;14.38;;;11.20;99.90;;;;;;4947483;28;20180;-83
2021/12/30 00:13:28;;;;;;;35.25;12.75;;;11.20;99.90;;;;;;4952897;28;20062;-83
2021/12/30 00:15:54;;;;;;;24.08;9.10;;;11.30;99.90;;;;;;4975119;28;20038;-83
2021/12/30 00:18:19;;;;;;;38.38;12.57;;;11.20;99.90;;;;;;4960055;28;20086;-83
2021/12/30 00:20:45;;;;;;;35.97;9.95;;;11.20;99.90;;;;;;4963143;28;20543;-83
2021/12/30 00:23:11;;;;;;;33.08;10.63;;;11.20;99.90;;;;;;4942609;28;20140;-83
2021/12/30 00:25:44;;;;;;;16.98;8.52;;;11.20;99.90;;;;;;4964531;28;20084;-83
2021/12/30 00:28:15;;;;;;;28.58;7.75;;;11.10;99.90;;;;;;4954230;28;20030;-83
2021/12/30 00:30:41;;;;;;;20.63;6.43;;;11.10;99.90;;;;;;4961963;28;20038;-83
2021/12/30 00:33:06;;;;;;;27.48;9.02;;;11.10;99.90;;;;;;4967908;28;20035;-83
2021/12/30 00:35:32;;;;;;;33.67;11.45;;;11.10;99.90;;;;;;4949608;28;20081;-83
2021/12/30 00:37:58;;;;;;;24.75;9.77;;;11.10;99.90;;;;;;4955072;28;20042;-83
2021/12/30 00:40:23;;;;;;;33.88;8.93;;;11.10;99.90;;;;;;4967773;28;20515;-83
2021/12/30 00:42:49;;;;;;;28.50;7.93;;;11.20;99.90;;;;;;4951588;28;20035;-83
2021/12/30 00:45:14;;;;;;;22.58;7.03;;;11.10;99.90;;;;;;4945996;28;20507;-83
2021/12/30 00:47:40;;;;;;;32.60;9.02;;;11.10;99.90;;;;;;4962238;28;20657;-83
2021/12/30 00:50:06;;;;;;;25.98;8.10;;;11.20;99.90;;;;;;4963922;28;20402;-84
2021/12/30 00:52:31;;;;;;;31.60;10.20;;;11.10;99.90;;;;;;4951774;28;20031;-84
2021/12/30 00:54:57;;;;;;;23.67;6.15;;;11.20;99.90;;;;;;4960008;28;20037;-84
2021/12/30 00:57:23;;;;;;;21.17;5.15;;;11.10;99.90;;;;;;4976264;28;20526;-83
2021/12/30 00:59:48;;;;;;;25.25;6.22;;;11.10;99.90;;;;;;4965095;28;20051;-83
2021/12/30 01:02:14;;;;;;;23.10;6.82;;;11.10;99.90;;;;;;4963090;28;20109;-83
2021/12/30 01:04:39;;;;;;;36.42;7.85;;;11.10;99.90;;;;;;4945341;28;20177;-84
2021/12/30 01:07:05;;;;;;;22.02;4.22;;;11.10;99.90;;;;;;4959384;28;20169;-84
2021/12/30 01:09:30;;;;;;;20.35;5.40;;;11.10;99.90;;;;;;4950249;28;20444;-83
2021/12/30 01:11:57;;;;;;;28.45;7.13;;;11.10;99.90;;;;;;4947720;28;20031;-84
2021/12/30 01:14:37;;;;;;;26.40;5.30;;;11.10;99.90;;;;;;4967461;28;20030;-83
2021/12/30 01:17:18;;;;;;;22.42;6.22;;;11.10;99.90;;;;;;4954187;28;20125;-84
2021/12/30 01:20:10;;;;;;;25.88;4.72;;;11.10;99.90;;;;;;4936909;28;20933;-83
2021/12/30 01:22:39;;;;;;;26.65;5.85;;;11.10;99.90;;;;;;4972694;28;20084;-83
2021/12/30 01:25:11;;;;;;;14.90;4.63;;;11.10;99.90;;;;;;4939669;28;20037;-84
2021/12/30 01:27:46;;;;;;;24.40;5.72;;;11.10;99.90;;;;;;4951568;28;20030;-83
2021/12/30 01:30:17;;;;;;;9.40;4.22;;;11.00;99.90;;;;;;4968269;28;20046;-83
2021/12/30 01:32:43;;;;;;;23.20;4.68;;;11.10;99.90;;;;;;4943654;28;20456;-83
2021/12/30 01:35:11;;;;;;;13.75;3.90;;;11.10;99.90;;;;;;4948011;28;20039;-83
2021/12/30 01:37:37;;;;;;;16.77;5.28;;;11.10;99.90;;;;;;4944410;28;20031;-84
2021/12/30 01:40:11;;;;;;;33.95;7.07;;;11.10;99.90;;;;;;4968422;28;20061;-83
2021/12/30 01:42:39;;;;;;;14.82;3.55;;;11.10;99.90;;;;;;4966068;28;20038;-83
2021/12/30 01:45:15;;;;;;;33.22;3.88;;;11.10;99.90;;;;;;4951405;28;20041;-83
2021/12/30 01:47:52;;;;;;;28.50;4.80;;;11.10;99.90;;;;;;4943883;28;20565;-83
2021/12/30 01:50:25;;;;;;;26.08;4.40;;;11.10;99.90;;;;;;4966726;28;20118;-83
2021/12/30 01:53:11;;;;;;;28.55;4.78;;;11.10;99.90;;;;;;4925162;28;20105;-83
2021/12/30 01:55:40;;;;;;;28.63;4.18;;;11.20;99.90;;;;;;4962837;28;20506;-83
2021/12/30 01:58:06;;;;;;;27.35;4.93;;;11.10;99.90;;;;;;4947310;28;20034;-83
2021/12/30 02:00:34;;;;;;;26.33;4.85;;;11.10;99.90;;;;;;4934210;28;20106;-83
2021/12/30 02:03:12;;;;;;;24.17;5.47;;;11.10;99.90;;;;;;4938752;28;20050;-83
2021/12/30 02:05:38;;;;;;;28.40;5.53;;;11.20;99.90;;;;;;4948354;28;20053;-83
2021/12/30 02:08:27;;;;;;;27.75;5.55;;;11.10;99.90;;;;;;4945192;28;20509;-83
2021/12/30 02:14:03;;;;;;;;;;;;;;;;;;;;;
2021/12/30 02:16:29;;;;;;;32.03;6.28;;;11.20;99.90;;;;;;4963930;28;20029;-83
2021/12/30 02:18:55;;;;;;;31.25;6.72;;;11.20;99.90;;;;;;4964052;28;20038;-83
2021/12/30 02:21:20;;;;;;;29.77;6.40;;;11.20;99.90;;;;;;4962371;28;20022;-83
2021/12/30 02:23:46;;;;;;;28.58;5.53;;;11.20;99.90;;;;;;4944364;28;20483;-82
2021/12/30 02:26:14;;;;;;;14.07;2.75;;;11.20;99.90;;;;;;4964509;28;20054;-84
2021/12/30 02:28:43;;;;;;;23.00;4.80;;;11.20;99.90;;;;;;4967581;28;20034;-83
2021/12/30 02:31:14;;;;;;;20.65;4.18;;;11.20;99.90;;;;;;4948055;28;20022;-83
2021/12/30 02:33:39;;;;;;;14.93;2.97;;;11.20;99.90;;;;;;4964300;28;20031;-83
2021/12/30 02:36:05;;;;;;;19.00;4.32;;;11.20;99.90;;;;;;4946784;28;20091;-83
2021/12/30 02:38:31;;;;;;;20.95;4.72;;;11.20;99.90;;;;;;4954247;28;20023;-83
2021/12/30 02:41:00;;;;;;;23.77;3.55;;;11.20;99.90;;;;;;4954224;28;20129;-83
2021/12/30 02:43:28;;;;;;;27.80;4.70;;;11.30;99.90;;;;;;4943909;28;20135;-83
2021/12/30 02:45:55;;;;;;;26.80;5.68;;;11.30;99.90;;;;;;4954378;28;20068;-84
2021/12/30 02:48:22;;;;;;;22.58;4.15;;;11.30;99.90;;;;;;4960442;28;20061;-83
2021/12/30 02:50:49;;;;;;;15.95;4.03;;;11.30;99.90;;;;;;4943484;28;20054;-82
2021/12/30 02:53:14;;;;;;;32.17;4.72;;;11.30;99.90;;;;;;4959898;28;20034;-83
2021/12/30 02:55:41;;;;;;;16.88;3.35;;;11.30;99.90;;;;;;4943885;28;20034;-83
2021/12/30 02:58:06;;;;;;;22.88;3.67;;;11.20;99.90;;;;;;4946401;28;20509;-83
2021/12/30 03:00:32;;;;;;;21.52;4.55;;;11.40;99.90;;;;;;4941905;28;20027;-83
2021/12/30 03:02:57;;;;;;;15.60;2.97;;;11.40;99.90;;;;;;4957488;28;20031;-83
2021/12/30 03:05:24;;;;;;;21.00;4.40;;;11.30;99.90;;;;;;4945342;28;20085;-83
2021/12/30 03:07:50;;;;;;;20.48;5.05;;;11.20;99.90;;;;;;4957893;28;20415;-83
2021/12/30 03:10:18;;;;;;;24.88;4.72;;;11.40;99.90;;;;;;4948128;28;20439;-83
2021/12/30 03:12:44;;;;;;;22.38;4.95;;;11.40;99.90;;;;;;4944874;28;20647;-83
2021/12/30 03:15:13;;;;;;;23.20;6.93;;;11.40;99.90;;;;;;4941773;28;20459;-84
2021/12/30 03:17:39;;;;;;;22.05;5.03;;;11.40;99.90;;;;;;4963991;28;20034;-83
2021/12/30 03:20:09;;;;;;;22.45;5.57;;;11.40;99.90;;;;;;4949825;28;20063;-83
2021/12/30 03:22:36;;;;;;;26.75;4.43;;;11.40;99.90;;;;;;4952972;28;20923;-83
2021/12/30 03:25:01;;;;;;;27.55;6.63;;;11.40;99.90;;;;;;4964738;28;20050;-83
2021/12/30 03:27:27;;;;;;;24.17;4.65;;;11.40;99.90;;;;;;4963568;28;20061;-83
2021/12/30 03:29:52;;;;;;;18.65;4.32;;;11.40;99.90;;;;;;4950338;28;20050;-83
2021/12/30 03:32:18;;;;;;;26.92;6.20;;;11.50;99.90;;;;;;4959982;28;20034;-83
2021/12/30 03:34:44;;;;;;;23.27;5.05;;;11.40;99.90;;;;;;4961034;28;20042;-83
2021/12/30 03:37:09;;;;;;;18.80;4.70;;;11.40;99.90;;;;;;4966238;28;20034;-83
2021/12/30 03:39:35;;;;;;;17.50;3.75;;;11.40;99.90;;;;;;4962759;28;20101;-84
2021/12/30 03:42:01;;;;;;;15.68;2.42;;;11.50;99.90;;;;;;4952619;28;20380;-84
2021/12/30 03:44:27;;;;;;;18.08;3.83;;;11.50;99.90;;;;;;4946607;28;20037;-83
2021/12/30 03:46:52;;;;;;;25.30;7.78;;;11.50;99.90;;;;;;4962947;28;20045;-83
2021/12/30 03:49:18;;;;;;;8.48;2.63;;;11.50;99.90;;;;;;4960128;28;20034;-84
2021/12/30 03:51:43;;;;;;;22.45;5.35;;;11.50;99.90;;;;;;4947958;28;20457;-83
2021/12/30 03:54:09;;;;;;;17.25;4.55;;;11.50;99.90;;;;;;4948151;28;20026;-83
2021/12/30 03:56:35;;;;;;;25.85;5.53;;;11.60;99.90;;;;;;4949355;28;20043;-83
2021/12/30 03:59:00;;;;;;;28.75;6.32;;;11.50;99.90;;;;;;4944275;28;20419;-83
2021/12/30 04:01:26;;;;;;;26.13;6.05;;;11.60;99.90;;;;;;4950353;28;20096;-83
2021/12/30 04:03:52;;;;;;;10.85;3.78;;;11.60;99.90;;;;;;4964669;28;20490;-84
2021/12/30 04:06:18;;;;;;;27.40;5.85;;;11.60;99.90;;;;;;4963943;28;20031;-83
2021/12/30 04:08:43;;;;;;;8.70;3.47;;;11.60;99.90;;;;;;4951507;28;20384;-83
2021/12/30 04:11:09;;;;;;;27.05;7.00;;;11.60;99.90;;;;;;4963392;28;20066;-84
2021/12/30 04:13:35;;;;;;;22.27;6.32;;;11.60;99.90;;;;;;4950874;28;20123;-83
2021/12/30 04:16:00;;;;;;;12.52;3.50;;;11.60;99.90;;;;;;4944094;28;20034;-83
2021/12/30 04:18:26;;;;;;;18.65;4.95;;;11.60;99.90;;;;;;4964792;28;20498;-83
2021/12/30 04:20:52;;;;;;;19.67;7.70;;;11.60;99.90;;;;;;4977709;28;20060;-83
2021/12/30 04:23:18;;;;;;;10.80;2.88;;;11.60;99.90;;;;;;4956693;28;20073;-83
2021/12/30 04:25:44;;;;;;;18.10;6.70;;;11.60;99.90;;;;;;4965900;28;20074;-84
2021/12/30 04:28:09;;;;;;;22.67;6.95;;;11.60;99.90;;;;;;4964673;28;20077;-83
2021/12/30 04:30:36;;;;;;;21.02;8.38;;;11.70;99.90;;;;;;4962567;28;20513;-83
2021/12/30 04:33:02;;;;;;;17.52;8.07;;;11.70;99.90;;;;;;4952356;28;20482;-83
2021/12/30 04:35:27;;;;;;;12.73;5.88;;;11.60;99.90;;;;;;4951719;28;20034;-84
2021/12/30 04:37:53;;;;;;;21.08;6.18;;;11.70;99.90;;;;;;4975260;28;20039;-84
2021/12/30 04:40:18;;;;;;;13.38;6.10;;;11.70;99.90;;;;;;4945690;28;20521;-85
2021/12/30 04:42:44;;;;;;;16.75;6.80;;;11.70;99.90;;;;;;4980694;28;20491;-84
2021/12/30 04:45:11;;;;;;;14.98;5.75;;;11.70;99.90;;;;;;4951764;28;20482;-84
2021/12/30 04:47:38;;;;;;;11.55;5.72;;;11.70;99.90;;;;;;4951755;28;20037;-84
2021/12/30 04:50:08;;;;;;;5.70;3.30;;;11.70;99.90;;;;;;4951429;28;20034;-84
2021/12/30 04:52:34;;;;;;;8.93;3.15;;;11.70;99.90;;;;;;4964151;28;20822;-85
2021/12/30 04:55:00;;;;;;;11.60;4.18;;;11.80;99.90;;;;;;4962457;28;20100;-84
2021/12/30 04:57:25;;;;;;;5.85;3.13;;;11.70;99.90;;;;;;4945832;28;20034;-84
2021/12/30 04:59:51;;;;;;;15.60;4.63;;;11.80;99.90;;;;;;4952433;28;20061;-84
2021/12/30 05:02:16;;;;;;;10.20;3.40;;;11.80;99.90;;;;;;4948330;28;20022;-84
2021/12/30 05:04:42;;;;;;;9.23;2.63;;;11.80;99.90;;;;;;4944214;28;20031;-84
2021/12/30 05:07:07;;;;;;;6.47;2.42;;;11.80;99.90;;;;;;4943371;28;20035;-84
2021/12/30 05:09:33;;;;;;;6.13;2.10;;;11.80;99.90;;;;;;4952204;28;20403;-84
2021/12/30 05:11:59;;;;;;;5.97;2.45;;;11.80;99.90;;;;;;4951969;28;20106;-84
2021/12/30 05:14:35;;;;;;;4.60;1.83;;;11.80;99.90;;;;;;4951373;28;20093;-84
2021/12/30 05:17:03;;;;;;;4.38;1.85;;;11.90;99.90;;;;;;4968740;28;20075;-84
2021/12/30 05:19:29;;;;;;;3.10;2.17;;;11.90;99.90;;;;;;4956285;28;20490;-85
2021/12/30 05:21:55;;;;;;;3.80;2.28;;;11.90;99.90;;;;;;4970132;28;20435;-84
2021/12/30 05:24:20;;;;;;;4.47;1.90;;;11.90;99.90;;;;;;4954131;28;20038;-84
2021/12/30 05:26:46;;;;;;;1.13;0.82;;;11.90;99.90;;;;;;4967783;28;20030;-84
2021/12/30 05:29:11;;;;;;;0.60;0.52;;;11.90;99.90;;;;;;4962340;28;20037;-84
2021/12/30 05:31:37;;;;;;;1.40;1.08;;;11.90;99.90;;;;;;4960809;28;20026;-84
2021/12/30 05:34:02;;;;;;;5.18;1.52;;;11.90;99.90;;;;;;4962742;28;20035;-85
2021/12/30 05:36:28;;;;;;;2.80;1.38;;;11.90;99.90;;;;;;4972484;28;20065;-84
2021/12/30 05:38:54;;;;;;;2.72;1.13;;;12.00;99.90;;;;;;4952485;28;20058;-85
2021/12/30 05:41:19;;;;;;;2.10;1.00;;;11.90;99.90;;;;;;4949394;28;20089;-85
2021/12/30 05:43:45;;;;;;;2.50;1.00;;;12.00;99.90;;;;;;4957976;28;20081;-84
2021/12/30 05:46:11;;;;;;;2.03;1.00;;;12.00;99.90;;;;;;4945049;28;20029;-84
2021/12/30 05:48:36;;;;;;;4.40;1.20;;;12.00;99.90;;;;;;4966192;28;20032;-84
2021/12/30 05:51:02;;;;;;;1.10;0.98;;;12.10;99.90;;;;;;4961982;28;20031;-84
2021/12/30 05:53:30;;;;;;;1.70;1.23;;;12.00;99.90;;;;;;4968947;28;20117;-85
2021/12/30 05:55:56;;;;;;;2.65;1.17;;;12.00;99.90;;;;;;4964128;28;20438;-84
2021/12/30 05:58:21;;;;;;;2.80;1.83;;;12.00;99.90;;;;;;4981338;28;20031;-84
2021/12/30 06:00:47;;;;;;;1.83;1.58;;;12.00;99.90;;;;;;4952342;28;20798;-84
2021/12/30 06:03:14;;;;;;;1.88;1.15;;;12.00;99.90;;;;;;4953537;28;20486;-84
2021/12/30 06:05:40;;;;;;;6.43;3.10;;;12.10;99.90;;;;;;4952860;28;20138;-84
2021/12/30 06:08:06;;;;;;;2.58;1.95;;;12.10;99.90;;;;;;4963676;28;20422;-84
2021/12/30 06:10:31;;;;;;;4.72;2.97;;;12.10;99.90;;;;;;4952863;28;20030;-84
2021/12/30 06:12:57;;;;;;;5.95;3.13;;;12.30;99.90;;;;;;4954188;28;20113;-85
2021/12/30 06:15:22;;;;;;;4.13;3.10;;;12.20;99.90;;;;;;4953616;28;20038;-84
2021/12/30 06:17:48;;;;;;;2.80;2.17;;;12.20;99.90;;;;;;4955675;28;20441;-84
2021/12/30 06:20:14;;;;;;;6.30;2.00;;;12.10;99.90;;;;;;4975170;28;20487;-84
2021/12/30 06:22:41;;;;;;;4.80;2.20;;;12.10;99.90;;;;;;4948254;28;20038;-85
2021/12/30 06:25:07;;;;;;;4.00;2.70;;;12.20;99.90;;;;;;4951237;28;20030;-84
2021/12/30 06:27:32;;;;;;;3.17;1.83;;;12.20;99.90;;;;;;4963047;28;20509;-84
2021/12/30 06:29:58;;;;;;;1.48;1.23;;;12.30;99.90;;;;;;4954194;28;20030;-85
2021/12/30 06:32:23;;;;;;;5.15;3.70;;;12.30;99.90;;;;;;4952094;28;20125;-84
2021/12/30 06:34:49;;;;;;;4.25;2.75;;;12.20;99.90;;;;;;4950070;28;20085;-84
2021/12/30 06:37:15;;;;;;;3.53;2.00;;;12.30;99.90;;;;;;4950517;28;20046;-84
2021/12/30 06:39:40;;;;;;;6.72;2.90;;;12.30;99.90;;;;;;4963375;28;20081;-84
2021/12/30 06:42:06;;;;;;;2.75;2.20;;;12.30;99.90;;;;;;4953112;28;20034;-84
2021/12/30 06:44:32;;;;;;;6.05;1.90;;;12.40;99.90;;;;;;4954547;28;20041;-84
2021/12/30 06:46:59;;;;;;;3.85;2.80;;;12.40;99.90;;;;;;4979169;28;20541;-84
2021/12/30 06:49:25;;;;;;;7.32;3.72;;;12.50;99.90;;;;;;4953551;28;20091;-84
2021/12/30 06:51:51;;;;;;;3.05;2.35;;;12.50;99.90;;;;;;4948758;28;20035;-84
2021/12/30 06:54:17;;;;;;;3.33;2.40;;;12.50;99.90;;;;;;4974357;28;20038;-84
2021/12/30 06:56:42;;;;;;;3.05;2.20;;;12.50;99.90;;;;;;4941126;28;20058;-84
2021/12/30 06:59:08;;;;;;;5.53;2.60;;;12.50;99.90;;;;;;4963462;28;20035;-85
2021/12/30 07:01:33;;;;;;;3.38;2.30;;;12.60;99.90;;;;;;4951455;28;20037;-85
2021/12/30 07:03:59;;;;;;;3.88;2.83;;;12.60;99.90;;;;;;4966801;28;20038;-85
2021/12/30 07:06:24;;;;;;;3.80;2.65;;;12.60;99.90;;;;;;4951191;28;20046;-84
2021/12/30 07:08:50;;;;;;;5.32;1.80;;;12.60;99.90;;;;;;4952255;28;20046;-84
2021/12/30 07:11:16;;;;;;;2.90;2.42;;;12.60;99.90;;;;;;4951836;28;20030;-84
2021/12/30 07:13:41;;;;;;;5.63;2.78;;;12.60;99.90;;;;;;4952543;28;20045;-84
2021/12/30 07:16:07;;;;;;;3.17;1.98;;;12.60;99.90;;;;;;4950762;28;20394;-88
2021/12/30 07:18:32;;;;;;;4.70;2.13;;;12.60;99.90;;;;;;4954697;28;20096;-87
2021/12/30 07:20:58;;;;;;;4.28;2.45;;;12.60;99.90;;;;;;4963427;28;20509;-84
2021/12/30 07:23:23;;;;;;;6.25;2.30;;;12.70;99.90;;;;;;4953106;28;20143;-84
2021/12/30 07:25:50;;;;;;;6.60;2.97;;;12.70;99.90;;;;;;4945527;28;20411;-84
2021/12/30 07:28:16;;;;;;;3.33;2.05;;;12.70;99.90;;;;;;4966452;28;20517;-84
2021/12/30 07:30:41;;;;;;;1.67;1.30;;;12.70;99.90;;;;;;4942734;28;20042;-86
2021/12/30 07:33:07;;;;;;;2.05;1.48;;;12.70;99.90;;;;;;4980160;28;20031;-85
2021/12/30 07:35:34;;;;;;;3.55;2.65;;;12.70;99.90;;;;;;4961930;28;20035;-85
2021/12/30 07:38:00;;;;;;;2.78;1.75;;;12.70;99.90;;;;;;4966645;28;20042;-84
2021/12/30 07:40:27;;;;;;;1.80;1.50;;;12.80;99.90;;;;;;4963644;28;20101;-84
2021/12/30 07:42:52;;;;;;;5.20;2.10;;;12.80;99.90;;;;;;4952431;28;20053;-86
2021/12/30 07:45:18;;;;;;;2.90;2.17;;;12.80;99.90;;;;;;4961978;28;20499;-85
2021/12/30 07:47:44;;;;;;;2.35;1.67;;;12.80;99.90;;;;;;4953372;28;20053;-86
2021/12/30 07:50:10;;;;;;;2.90;1.60;;;12.70;99.90;;;;;;4942174;28;20858;-85
2021/12/30 07:52:37;;;;;;;1.20;1.00;;;12.90;99.90;;;;;;4952878;28;20713;-85
2021/12/30 07:55:04;;;;;;;1.55;1.42;;;12.80;99.90;;;;;;4964157;28;20030;-85
2021/12/30 07:57:30;;;;;;;6.78;2.33;;;12.80;99.90;;;;;;4947343;28;20586;-85
2021/12/30 07:59:56;;;;;;;3.72;1.73;;;12.80;99.90;;;;;;4963012;28;20087;-85
2021/12/30 08:02:21;;;;;;;4.00;2.00;;;12.80;99.90;;;;;;4979114;28;20034;-85
2021/12/30 08:04:57;;;;;;;;;;;;;;;;;;;;;
2021/12/30 08:07:24;;;;;;;0.70;0.70;;;12.80;99.90;;;;;;4961740;28;20524;-85
2021/12/30 08:09:50;;;;;;;2.65;1.60;;;12.80;99.90;;;;;;4946361;28;20109;-85
2021/12/30 08:12:15;;;;;;;2.45;1.92;;;12.80;99.90;;;;;;4951122;28;20125;-85
2021/12/30 08:14:41;;;;;;;2.15;1.50;;;12.80;99.90;;;;;;4964697;28;20093;-86
2021/12/30 08:17:06;;;;;;;3.75;2.65;;;12.90;99.90;;;;;;4965408;28;20044;-85
2021/12/30 08:19:32;;;;;;;5.28;2.15;;;12.80;99.90;;;;;;4965211;28;20545;-86
2021/12/30 08:22:04;;;;;;;6.90;2.15;;;12.80;99.90;;;;;;4964023;28;20035;-85
2021/12/30 08:24:29;;;;;;;2.63;2.28;;;12.90;99.90;;;;;;4952039;28;20104;-85
2021/12/30 08:26:55;;;;;;;3.30;2.58;;;13.00;99.90;;;;;;4948250;28;20054;-85
2021/12/30 08:29:21;;;;;;;3.33;1.95;;;12.80;99.90;;;;;;4960672;28;20042;-86
2021/12/30 08:31:47;;;;;;;2.13;1.73;;;12.90;99.90;;;;;;4945189;28;20031;-86
2021/12/30 08:34:13;;;;;;;2.90;1.65;;;12.90;99.90;;;;;;4945873;28;20031;-85
2021/12/30 08:36:39;;;;;;;5.00;2.00;;;12.90;99.90;;;;;;4961060;28;20035;-85
2021/12/30 08:39:05;;;;;;;3.97;2.58;;;12.90;99.90;;;;;;4966080;28;20050;-85
2021/12/30 08:41:30;;;;;;;4.05;2.53;;;12.90;99.90;;;;;;4949765;28;20062;-85
2021/12/30 08:43:56;;;;;;;5.13;2.55;;;12.90;99.90;;;;;;4979651;28;20398;-85
2021/12/30 08:46:21;;;;;;;2.65;2.05;;;12.90;99.90;;;;;;4951008;28;20112;-85
2021/12/30 08:48:47;;;;;;;2.35;2.15;;;12.90;99.90;;;;;;4952095;28;20046;-86
2021/12/30 08:51:12;;;;;;;2.08;1.88;;;12.90;99.90;;;;;;4966024;28;20131;-85
2021/12/30 08:53:40;;;;;;;3.80;1.80;;;12.90;99.90;;;;;;4952422;28;20040;-86
2021/12/30 08:56:07;;;;;;;2.17;1.77;;;12.90;99.90;;;;;;4952091;28;20145;-85
2021/12/30 08:58:32;;;;;;;3.05;1.45;;;12.90;99.90;;;;;;4955707;28;20118;-85
2021/12/30 09:00:58;;;;;;;2.30;1.33;;;12.90;99.90;;;;;;4952116;28;20113;-85
2021/12/30 09:03:23;;;;;;;4.55;1.90;;;12.90;99.90;;;;;;4955531;28;20403;-85
2021/12/30 09:05:49;;;;;;;1.92;1.67;;;12.90;99.90;;;;;;4982491;28;20121;-85
2021/12/30 09:08:15;;;;;;;3.80;1.88;;;12.90;99.90;;;;;;4952083;28;20038;-86
2021/12/30 09:10:45;;;;;;;2.47;2.05;;;12.90;99.90;;;;;;4953905;28;20037;-85
2021/12/30 09:13:11;;;;;;;5.05;1.40;;;13.00;99.90;;;;;;4953651;28;20121;-85
2021/12/30 09:15:36;;;;;;;3.55;1.70;;;13.00;99.90;;;;;;4950305;28;20113;-91
2021/12/30 09:18:05;;;;;;;3.20;2.63;;;12.90;99.90;;;;;;4956591;28;20130;-90
2021/12/30 09:20:30;;;;;;;2.38;1.80;;;12.90;99.90;;;;;;4956449;28;20394;-88
2021/12/30 09:22:56;;;;;;;5.95;3.00;;;13.00;99.90;;;;;;4952790;28;20035;-87
2021/12/30 09:25:23;;;;;;;1.70;1.45;;;13.00;99.90;;;;;;4964031;28;20031;-90
2021/12/30 09:27:50;;;;;;;3.15;1.55;;;13.00;99.90;;;;;;4953524;28;20035;-89
2021/12/30 09:30:16;;;;;;;5.20;1.60;;;13.00;99.90;;;;;;4967554;28;20518;-89
2021/12/30 09:32:41;;;;;;;2.95;2.13;;;13.00;99.90;;;;;;4948259;28;20070;-89
2021/12/30 09:35:08;;;;;;;4.43;3.30;;;13.00;99.90;;;;;;4953039;28;20034;-90
2021/12/30 09:37:33;;;;;;;3.03;2.47;;;13.10;99.90;;;;;;4953731;28;20090;-89
2021/12/30 09:39:59;;;;;;;2.08;1.85;;;13.10;99.90;;;;;;4953143;28;20495;-91
2021/12/30 09:42:25;;;;;;;5.30;2.80;;;13.20;99.90;;;;;;4958540;28;20052;-90
2021/12/30 09:44:51;;;;;;;3.20;2.55;;;13.20;99.90;;;;;;4954027;28;20064;-91
2021/12/30 09:47:17;;;;;;;4.60;1.98;;;13.20;99.90;;;;;;4970565;28;20042;-91
2021/12/30 09:49:42;;;;;;;2.30;1.58;;;13.30;99.90;;;;;;4953805;28;20078;-92
2021/12/30 09:52:08;;;;;;;3.22;2.30;;;13.30;99.90;;;;;;4952476;28;20039;-91
2021/12/30 09:54:33;;;;;;;3.05;2.15;;;13.30;99.90;;;;;;4956305;28;20026;-90
2021/12/30 09:56:59;;;;;;;2.70;2.15;;;13.30;99.90;;;;;;4974816;28;20458;-89
2021/12/30 09:59:25;;;;;;;4.25;1.80;;;13.40;99.90;;;;;;4954200;28;20030;-90
2021/12/30 10:01:50;;;;;;;1.88;1.27;;;13.50;99.90;;;;;;4951987;28;20046;-91
2021/12/30 10:04:16;;;;;;;3.88;2.33;;;13.50;99.90;;;;;;4955519;28;20060;-91
2021/12/30 10:06:47;;;;;;;3.40;1.80;;;13.60;99.90;;;;;;4956340;28;20034;-90
2021/12/30 10:09:15;;;;;;;2.45;1.70;;;13.60;99.90;;;;;;4968311;28;20196;-92
2021/12/30 10:12:04;;;;;;;2.17;1.13;;;13.60;99.90;;;;;;4953479;28;20030;-87
2021/12/30 10:14:35;;;;;;;1.92;1.77;;;13.70;99.90;;;;;;4951338;28;20078;-89
2021/12/30 10:17:16;;;;;;;2.25;1.25;;;13.70;99.90;;;;;;4954032;28;20038;-86
2021/12/30 10:19:42;;;;;;;2.17;1.38;;;13.80;99.90;;;;;;4970705;28;20026;-90
2021/12/30 10:22:11;;;;;;;3.22;2.20;;;13.80;99.90;;;;;;4952729;28;20031;-89
2021/12/30 10:24:37;;;;;;;1.23;0.82;;;13.80;99.90;;;;;;4968922;28;20034;-91
2021/12/30 10:27:03;;;;;;;2.90;1.17;;;13.80;99.90;;;;;;4965018;28;20030;-88
2021/12/30 10:29:41;;;;;;;2.70;1.63;;;13.70;99.90;;;;;;4952993;28;20026;-92
2021/12/30 10:32:21;;;;;;;2.92;1.33;;;13.70;99.90;;;;;;4964866;28;20045;-92
2021/12/30 10:35:15;;;;;;;2.65;1.63;;;13.80;99.90;;;;;;4954241;28;20027;-88
2021/12/30 10:37:44;;;;;;;2.25;1.35;;;13.80;99.90;;;;;;4961524;28;20043;-91
2021/12/30 10:40:29;;;;;;;1.40;1.30;;;13.80;99.90;;;;;;4949687;28;20093;-91
2021/12/30 10:43:38;;;;;;;4.75;1.52;;;13.80;99.90;;;;;;4949664;28;20031;-91
2021/12/30 10:46:15;;;;;;;1.42;1.20;;;13.80;99.90;;;;;;4966445;28;20105;-91
2021/12/30 10:48:47;;;;;;;2.60;1.20;;;13.90;99.90;;;;;;4956002;28;20088;-92
2021/12/30 10:51:16;;;;;;;0.85;0.82;;;13.90;99.90;;;;;;4969228;28;20491;-91
2021/12/30 10:53:42;;;;;;;0.73;0.70;;;13.80;99.90;;;;;;4967168;28;20117;-91
2021/12/30 10:56:26;;;;;;;3.03;1.27;;;13.90;99.90;;;;;;4966189;28;20058;-92
2021/12/30 10:58:54;;;;;;;3.38;1.42;;;13.90;99.90;;;;;;4987707;28;20035;-91
2021/12/30 11:01:20;;;;;;;3.25;1.23;;;13.90;99.90;;;;;;4968882;28;20072;-91
2021/12/30 11:03:54;;;;;;;3.60;1.30;;;14.00;99.90;;;;;;4953908;28;20031;-91
2021/12/30 11:06:23;;;;;;;3.60;1.05;;;13.90;99.90;;;;;;4969522;28;20121;-91
2021/12/30 11:08:59;;;;;;;2.00;1.42;;;14.00;99.90;;;;;;4952345;28;20582;-89
2021/12/30 11:11:26;;;;;;;4.65;1.15;;;13.90;99.90;;;;;;4954903;28;20038;-86
2021/12/30 11:14:01;;;;;;;1.42;0.93;;;13.90;99.90;;;;;;4951974;28;20042;-86
2021/12/30 11:16:27;;;;;;;7.80;2.20;;;13.90;99.90;;;;;;4980389;28;20029;-86
2021/12/30 11:18:52;;;;;;;5.85;1.58;;;13.90;99.90;;;;;;4946810;28;20151;-86
2021/12/30 11:21:36;;;;;;;3.03;1.45;;;13.90;99.90;;;;;;4950515;28;20031;-86
2021/12/30 11:24:02;;;;;;;3.58;2.05;;;13.90;99.90;;;;;;4979616;28;20031;-86
2021/12/30 11:26:28;;;;;;;2.70;1.13;;;13.90;99.90;;;;;;4944352;28;20018;-86
2021/12/30 11:28:54;;;;;;;1.58;1.00;;;13.90;99.90;;;;;;4948052;28;20045;-86
2021/12/30 11:31:21;;;;;;;5.38;1.73;;;13.90;99.90;;;;;;4950140;28;20026;-86
2021/12/30 11:33:47;;;;;;;1.38;0.82;;;13.90;99.90;;;;;;4943457;28;20121;-86
2021/12/30 11:36:12;;;;;;;4.07;1.67;;;13.90;99.90;;;;;;4949316;28;20093;-86
2021/12/30 11:38:38;;;;;;;1.85;1.55;;;13.90;99.90;;;;;;4947364;28;20045;-85
2021/12/30 11:41:04;;;;;;;6.85;1.85;;;13.90;99.90;;;;;;4964727;28;20034;-85
2021/12/30 11:43:48;;;;;;;3.78;1.17;;;13.90;99.90;;;;;;4954041;28;20034;-86
2021/12/30 11:46:42;;;;;;;4.30;1.98;;;13.90;99.90;;;;;;4941159;28;20038;-87
2021/12/30 11:49:09;;;;;;;2.63;1.08;;;14.00;99.90;;;;;;4967255;28;20046;-87
2021/12/30 11:51:48;;;;;;;7.32;2.13;;;13.90;99.90;;;;;;4965215;28;20054;-86
2021/12/30 11:54:38;;;;;;;6.65;1.58;;;14.00;99.90;;;;;;4979870;28;20482;-87
2021/12/30 11:57:31;;;;;;;3.83;1.35;;;14.10;99.90;;;;;;4965093;28;20053;-87
2021/12/30 11:59:59;;;;;;;2.50;1.50;;;14.00;99.90;;;;;;4965614;28;20033;-87
2021/12/30 12:02:35;;;;;;;2.63;1.63;;;14.00;99.90;;;;;;4953160;28;20043;-87
2021/12/30 12:05:19;;;;;;;;;;;14.00;99.90;;;;;;4967417;28;20490;-87
2021/12/30 12:08:06;;;;;;;3.15;1.77;;;14.00;99.90;;;;;;4994967;28;19964;-86
2021/12/30 12:10:32;;;;;;;8.82;2.08;;;14.00;99.90;;;;;;4945816;28;20058;-87
2021/12/30 12:12:57;;;;;;;2.95;2.00;;;14.00;99.90;;;;;;4951106;28;20490;-86
2021/12/30 12:15:23;;;;;;;4.93;1.83;;;13.90;99.90;;;;;;4961894;28;20952;-88
2021/12/30 12:17:48;;;;;;;3.47;1.90;;;14.00;99.90;;;;;;4951289;28;20414;-86
2021/12/30 12:20:22;;;;;;;6.25;2.15;;;13.90;99.90;;;;;;4965690;28;20034;-86
2021/12/30 12:22:48;;;;;;;6.03;2.00;;;14.00;99.90;;;;;;4959421;28;20031;-86
2021/12/30 12:25:22;;;;;;;4.75;1.60;;;13.90;99.90;;;;;;4962838;28;20503;-86
2021/12/30 12:27:53;;;;;;;3.85;1.30;;;14.00;99.90;;;;;;4953196;28;20506;-86
2021/12/30 12:30:35;;;;;;;8.30;3.22;;;13.90;99.90;;;;;;4978546;28;20085;-86
2021/12/30 12:33:20;;;;;;;5.93;2.37;;;13.90;99.90;;;;;;4621268;28;10000283;-87
2021/12/30 12:35:45;;;;;;;8.25;1.95;;;13.90;99.90;;;;;;4976305;28;20286;-86
2021/12/30 12:38:11;;;;;;;6.68;2.55;;;13.90;99.90;;;;;;4960084;28;20034;-87
2021/12/30 12:40:42;;;;;;;6.63;2.38;;;13.90;99.90;;;;;;4950451;28;20037;-87
2021/12/30 12:43:15;;;;;;;6.47;2.80;;;13.90;99.90;;;;;;4946165;28;20120;-86
2021/12/30 12:45:50;;;;;;;8.02;2.50;;;13.90;99.90;;;;;;4958066;28;20034;-85
2021/12/30 12:48:20;;;;;;;4.18;2.22;;;13.90;99.90;;;;;;4982393;28;20038;-86
2021/12/30 12:51:03;;;;;;;3.90;1.80;;;13.90;99.90;;;;;;4979531;28;20034;-87
2021/12/30 12:53:32;;;;;;;4.40;1.98;;;14.00;99.90;;;;;;4967127;28;20033;-87